Aviation Digital Data Service (ADDS)

Output produced by METARs form (2010 UTC 09 December 2018)
found at http://www.aviationweather.gov/metar/data/
 
METAR text: EDVE 091820Z 28015KT 9999 SCT014 BKN038 06/03 Q1000 RERA
Conditions at: EDVE (BRAUNSCHWEIG , DE) observed 1820 UTC 09 December 2018
Temperature: 6.0°C (43°F)
Dewpoint: 3.0°C (37°F) [RH = 81%]
Pressure (altimeter): 29.53 inches Hg (1000.0 mb)
Winds: from the W (280 degrees) at 17 MPH (15 knots; 7.7 m/s)
Visibility: 6 or more miles (10+ km)
Ceiling: 3800 feet AGL
Clouds: scattered clouds at 1400 feet AGL
broken clouds at 3800 feet AGL
Weather: no significant weather observed at this time

Forecast for: EDVE (BRAUNSCHWEIG , DE)
Text: TAF EDVE 091700Z 0918/0921 28013KT 9999 FEW015 BKN025
Forecast period: 1800 to 2100 UTC 09 December 2018
Forecast type: FROM: standard forecast or significant change
Winds: from the W (280 degrees) at 15 MPH (13 knots; 6.7 m/s)
Visibility: 6 or more miles 10+ km)
Ceiling: 2500 feet AGL
Clouds: few clouds at 1500 feet AGL
broken clouds at 2500 feet AGL
Weather: no significant weather forecast for this period
Text: PROB30
Forecast period: 1800 to 2100 UTC 09 December 2018
Forecast type: TEMPORARY: The following changes expected for less than half the time period
Winds: from the WNW (290 degrees) at 17 MPH (15 knots; 7.7 m/s)
gusting to 34 MPH (30 knots; 15.4 m/s)
Visibility: missing
Ceiling: 1300 feet AGL
Clouds: broken clouds at 1300 feet AGL
Weather: SHRA  (rain showers)